Time;durP1;ratioP1;P1;durP2;ratioP2;P2;SDS_P1;SDS_P2;PMS_P1;PMS_P2;Temp;Humidity;BMP_temperature;BMP_pressure;BME280_temperature;BME280_humidity;BME280_pressure;Samples;Min_cycle;Max_cycle;Signal;HPM_P1;HPM_P2
2023/04/23 00:02:10;;;;;;;30.95;24.33;;;9.60;99.90;;;;;;5037982;28;20095;-76
2023/04/23 00:04:38;;;;;;;37.45;28.15;;;9.60;99.90;;;;;;5054583;28;20595;-76
2023/04/23 00:07:04;;;;;;;37.25;28.35;;;9.50;99.90;;;;;;5057139;28;20121;-76
2023/04/23 00:09:31;;;;;;;33.78;22.85;;;9.50;99.90;;;;;;5057702;28;20044;-76
2023/04/23 00:11:58;;;;;;;32.78;26.80;;;9.50;99.90;;;;;;5058877;28;20044;-76
2023/04/23 00:14:24;;;;;;;29.83;24.60;;;9.50;99.90;;;;;;5054714;28;20781;-76
2023/04/23 00:16:52;;;;;;;26.40;19.17;;;9.40;99.90;;;;;;5058243;28;20053;-76
2023/04/23 00:19:17;;;;;;;32.75;25.27;;;9.40;99.90;;;;;;5047691;28;20045;-76
2023/04/23 00:21:43;;;;;;;28.98;21.35;;;9.40;99.90;;;;;;5056339;28;20056;-76
2023/04/23 00:24:09;;;;;;;33.95;24.27;;;9.40;99.90;;;;;;5057560;28;20064;-76
2023/04/23 00:26:35;;;;;;;32.20;25.10;;;9.40;99.90;;;;;;5055505;28;20102;-76
2023/04/23 00:29:00;;;;;;;33.78;24.63;;;9.40;99.90;;;;;;5057560;28;20135;-76
2023/04/23 00:31:26;;;;;;;31.73;23.67;;;9.40;99.90;;;;;;5043344;28;20040;-76
2023/04/23 00:33:52;;;;;;;32.05;23.90;;;9.40;99.90;;;;;;5053173;28;20044;-77
2023/04/23 00:36:18;;;;;;;33.78;26.02;;;9.40;99.90;;;;;;5052996;28;20406;-76
2023/04/23 00:38:44;;;;;;;31.60;24.65;;;9.40;99.90;;;;;;5037565;28;20048;-76
2023/04/23 00:41:10;;;;;;;31.83;24.10;;;9.40;99.90;;;;;;5054667;28;20048;-76
2023/04/23 00:43:36;;;;;;;35.63;24.45;;;9.40;99.90;;;;;;5060762;28;20500;-76
2023/04/23 00:46:02;;;;;;;35.47;26.20;;;9.40;99.90;;;;;;5085945;28;20601;-76
2023/04/23 00:48:28;;;;;;;33.72;24.42;;;9.30;99.90;;;;;;5063091;28;20043;-76
2023/04/23 00:51:10;;;;;;;38.03;27.75;;;9.40;99.90;;;;;;5040295;28;20083;-76
2023/04/23 00:53:35;;;;;;;36.50;28.20;;;9.30;99.90;;;;;;5054986;28;20097;-76
2023/04/23 00:56:04;;;;;;;30.48;22.83;;;9.30;99.90;;;;;;5088397;28;20052;-76
2023/04/23 00:58:31;;;;;;;33.15;24.52;;;9.30;99.90;;;;;;5061003;28;20068;-76
2023/04/23 01:00:57;;;;;;;32.92;24.20;;;9.40;99.90;;;;;;5061020;28;20109;-76
2023/04/23 01:03:25;;;;;;;41.47;27.30;;;9.40;99.90;;;;;;5058234;28;20907;-77
2023/04/23 01:05:51;;;;;;;36.40;24.35;;;9.30;99.90;;;;;;5060007;28;20040;-76
2023/04/23 01:08:17;;;;;;;30.42;22.40;;;9.30;99.90;;;;;;5061344;28;20042;-76
2023/04/23 01:10:44;;;;;;;38.60;24.45;;;9.30;99.90;;;;;;5053000;28;20084;-76
2023/04/23 01:13:14;;;;;;;32.22;23.75;;;9.30;99.90;;;;;;5053590;28;20620;-77
2023/04/23 01:15:40;;;;;;;48.72;26.38;;;9.30;99.90;;;;;;5056342;28;20040;-77
2023/04/23 01:18:06;;;;;;;47.72;25.98;;;9.30;99.90;;;;;;5051931;28;20049;-77
2023/04/23 01:20:36;;;;;;;41.35;25.23;;;9.20;99.90;;;;;;5057611;28;20060;-77
2023/04/23 01:23:06;;;;;;;34.75;22.65;;;9.20;99.90;;;;;;5057058;28;20053;-77
2023/04/23 01:25:31;;;;;;;40.08;25.15;;;9.20;99.90;;;;;;5047066;28;20060;-77
2023/04/23 01:27:57;;;;;;;32.70;23.70;;;9.10;99.90;;;;;;5045830;28;20304;-77
2023/04/23 01:30:25;;;;;;;29.17;22.02;;;9.10;99.90;;;;;;5059650;28;20489;-77
2023/04/23 01:32:54;;;;;;;31.27;25.48;;;9.00;99.90;;;;;;5052293;28;20051;-77
2023/04/23 01:35:20;;;;;;;28.67;22.52;;;9.10;99.90;;;;;;5049096;28;20122;-77
2023/04/23 01:37:47;;;;;;;29.38;23.30;;;9.00;99.90;;;;;;5059308;28;20052;-77
2023/04/23 01:40:13;;;;;;;39.42;25.92;;;9.00;99.90;;;;;;5060102;28;20083;-77
2023/04/23 01:42:39;;;;;;;32.35;25.55;;;8.90;99.90;;;;;;5060943;28;20127;-77
2023/04/23 01:45:06;;;;;;;32.42;26.25;;;8.90;99.90;;;;;;5059715;28;20052;-77
2023/04/23 01:47:34;;;;;;;29.45;24.77;;;8.90;99.90;;;;;;5059902;28;20440;-77
2023/04/23 01:49:59;;;;;;;35.17;24.40;;;8.90;99.90;;;;;;5061658;28;20063;-77
2023/04/23 01:52:25;;;;;;;33.88;24.55;;;8.80;99.90;;;;;;5055999;28;20053;-77
2023/04/23 01:54:51;;;;;;;35.83;28.02;;;8.80;99.90;;;;;;5056894;28;20040;-77
2023/04/23 01:57:23;;;;;;;35.85;25.98;;;8.80;99.90;;;;;;5051473;28;20075;-77
2023/04/23 02:00:03;;;;;;;31.38;24.20;;;8.80;99.90;;;;;;5046651;28;20165;-77
2023/04/23 02:02:28;;;;;;;32.10;22.13;;;8.80;99.90;;;;;;5052003;28;20483;-77
2023/04/23 02:04:55;;;;;;;35.33;25.77;;;8.80;99.90;;;;;;5041479;28;20041;-77
2023/04/23 02:07:21;;;;;;;33.47;25.83;;;8.80;99.90;;;;;;5057004;28;20131;-77
2023/04/23 02:09:46;;;;;;;32.13;25.55;;;8.80;99.90;;;;;;5060962;28;20051;-77
2023/04/23 02:12:12;;;;;;;30.95;23.40;;;8.80;99.90;;;;;;5060482;28;20655;-77
2023/04/23 02:14:38;;;;;;;36.20;27.00;;;8.80;99.90;;;;;;5060028;28;20037;-77
2023/04/23 02:17:04;;;;;;;34.75;26.63;;;8.80;99.90;;;;;;5057141;28;20052;-77
2023/04/23 02:19:33;;;;;;;32.80;25.35;;;8.70;99.90;;;;;;5056097;28;20053;-77
2023/04/23 02:21:58;;;;;;;31.65;23.55;;;8.70;99.90;;;;;;5056569;28;20052;-77
2023/04/23 02:24:24;;;;;;;30.15;23.92;;;8.70;99.90;;;;;;5057147;28;20059;-77
2023/04/23 02:26:50;;;;;;;35.22;25.58;;;8.70;99.90;;;;;;5062236;28;20750;-78
2023/04/23 02:29:15;;;;;;;33.03;24.90;;;8.60;99.90;;;;;;5056829;28;20048;-77
2023/04/23 02:31:41;;;;;;;32.53;25.65;;;8.60;99.90;;;;;;5091031;28;20048;-77
2023/04/23 02:34:07;;;;;;;33.65;25.45;;;8.60;99.90;;;;;;5050771;28;20087;-77
2023/04/23 02:36:32;;;;;;;32.83;26.00;;;8.50;99.90;;;;;;5062848;28;20044;-77
2023/04/23 02:38:58;;;;;;;35.42;24.98;;;8.50;99.90;;;;;;5060444;28;20135;-77
2023/04/23 02:41:24;;;;;;;43.10;31.27;;;8.50;99.90;;;;;;5053592;28;20052;-77
2023/04/23 02:43:49;;;;;;;39.50;27.27;;;8.50;99.90;;;;;;5060653;28;20122;-77
2023/04/23 02:46:15;;;;;;;42.60;31.70;;;8.50;99.90;;;;;;5060713;28;20127;-77
2023/04/23 02:48:41;;;;;;;46.05;32.17;;;8.40;99.90;;;;;;5060618;28;20047;-77
2023/04/23 02:51:10;;;;;;;47.03;31.35;;;8.40;99.90;;;;;;5086877;28;20054;-77
2023/04/23 02:53:36;;;;;;;44.38;32.25;;;8.40;99.90;;;;;;5051303;28;20792;-77
2023/04/23 02:56:02;;;;;;;42.95;30.27;;;8.30;99.90;;;;;;5050872;28;20048;-76
2023/04/23 02:58:28;;;;;;;51.10;37.55;;;8.30;99.90;;;;;;5064659;28;20052;-77
2023/04/23 03:00:54;;;;;;;53.08;36.90;;;7.20;99.90;;;;;;5066040;28;20079;-77
2023/04/23 03:03:20;;;;;;;52.42;35.95;;;8.30;99.90;;;;;;5051986;28;20053;-77
2023/04/23 03:05:46;;;;;;;55.50;37.85;;;8.30;99.90;;;;;;5065718;28;20694;-77
2023/04/23 03:08:12;;;;;;;46.17;34.92;;;8.30;99.90;;;;;;5053363;28;20055;-78
2023/04/23 03:10:37;;;;;;;53.38;37.72;;;8.30;99.90;;;;;;5063017;28;20088;-77
2023/04/23 03:13:03;;;;;;;112.75;38.78;;;8.30;99.90;;;;;;5074655;28;20063;-76
2023/04/23 03:15:29;;;;;;;58.97;26.95;;;8.20;99.90;;;;;;5087163;28;20052;-77
2023/04/23 03:17:55;;;;;;;59.35;26.90;;;8.00;99.90;;;;;;5072143;28;20095;-77
2023/04/23 03:20:21;;;;;;;339.90;68.65;;;7.80;99.90;;;;;;5057276;28;20049;-78
2023/04/23 03:22:46;;;;;;;157.93;38.25;;;7.50;99.90;;;;;;5060063;28;20071;-78
2023/04/23 03:25:12;;;;;;;75.88;32.45;;;7.30;99.90;;;;;;5058435;28;20147;-78
2023/04/23 03:27:39;;;;;;;121.18;37.10;;;7.20;99.90;;;;;;5067619;28;20092;-78
2023/04/23 03:30:07;;;;;;;38.60;24.13;;;7.10;99.90;;;;;;5041585;28;20417;-78
2023/04/23 03:32:33;;;;;;;73.43;31.95;;;7.10;99.90;;;;;;5041677;28;20527;-78
2023/04/23 03:34:59;;;;;;;29.92;24.73;;;7.10;99.90;;;;;;5045825;28;20048;-78
2023/04/23 03:37:26;;;;;;;30.33;25.05;;;7.20;99.90;;;;;;5048592;28;20153;-78
2023/04/23 03:39:52;;;;;;;32.13;21.38;;;7.30;99.90;;;;;;5047026;28;20072;-78
2023/04/23 03:42:18;;;;;;;33.30;26.33;;;7.30;99.90;;;;;;5056444;28;20508;-78
2023/04/23 03:44:43;;;;;;;31.90;23.65;;;7.30;99.90;;;;;;5085465;28;20071;-77
2023/04/23 03:47:09;;;;;;;38.17;26.73;;;7.40;99.90;;;;;;5048150;28;20057;-78
2023/04/23 03:49:35;;;;;;;33.47;24.60;;;7.30;99.90;;;;;;5046878;28;20048;-78
2023/04/23 03:52:01;;;;;;;38.40;28.55;;;7.40;99.90;;;;;;5051149;28;20083;-78
2023/04/23 03:54:27;;;;;;;30.15;24.00;;;7.40;99.90;;;;;;5054332;28;20086;-78
2023/04/23 03:56:53;;;;;;;36.53;29.33;;;7.50;99.90;;;;;;5051810;28;20048;-78
2023/04/23 03:59:19;;;;;;;43.80;29.00;;;7.40;99.90;;;;;;5054735;28;20778;-78
2023/04/23 04:01:47;;;;;;;35.55;24.80;;;7.40;99.90;;;;;;5045334;28;20045;-78
2023/04/23 04:04:13;;;;;;;112.45;40.33;;;7.50;99.90;;;;;;5056978;28;20833;-78
2023/04/23 04:06:39;;;;;;;54.88;31.08;;;7.50;99.90;;;;;;5057211;28;20056;-78
2023/04/23 04:09:07;;;;;;;31.73;24.92;;;6.80;99.90;;;;;;5058311;28;20119;-78
2023/04/23 04:11:32;;;;;;;72.13;29.88;;;7.40;99.90;;;;;;5055551;28;20109;-77
2023/04/23 04:13:58;;;;;;;277.20;63.78;;;7.30;99.90;;;;;;5048127;28;20858;-77
2023/04/23 04:16:24;;;;;;;104.10;33.13;;;7.30;99.90;;;;;;5057554;28;20052;-77
2023/04/23 04:18:49;;;;;;;54.65;30.40;;;7.10;99.90;;;;;;5060668;28;20501;-78
2023/04/23 04:21:16;;;;;;;72.50;28.58;;;7.10;99.90;;;;;;5063060;28;20545;-77
2023/04/23 04:23:43;;;;;;;76.63;30.55;;;7.10;99.90;;;;;;5057425;28;20048;-77
2023/04/23 04:26:09;;;;;;;57.38;27.83;;;7.00;99.90;;;;;;5057572;28;20052;-77
2023/04/23 04:28:36;;;;;;;137.15;46.70;;;7.00;99.90;;;;;;5060947;28;20045;-77
2023/04/23 04:31:07;;;;;;;92.53;36.78;;;7.00;99.90;;;;;;5063019;28;20048;-78
2023/04/23 04:33:34;;;;;;;72.72;33.60;;;7.10;99.90;;;;;;5062484;28;20501;-78
2023/04/23 04:36:00;;;;;;;53.45;31.55;;;7.10;99.90;;;;;;5056726;28;20139;-77
2023/04/23 04:38:27;;;;;;;103.15;42.03;;;7.10;99.90;;;;;;5055216;28;20665;-78
2023/04/23 04:41:01;;;;;;;43.42;30.88;;;7.10;99.90;;;;;;5057220;28;20211;-77
2023/04/23 04:43:26;;;;;;;48.20;33.25;;;7.10;99.90;;;;;;5062578;28;20521;-78
2023/04/23 04:45:52;;;;;;;47.05;33.85;;;7.20;99.90;;;;;;5056332;28;20054;-77
2023/04/23 04:48:18;;;;;;;47.38;33.05;;;7.20;99.90;;;;;;5055968;28;20091;-77
2023/04/23 04:50:45;;;;;;;54.97;37.38;;;7.30;99.90;;;;;;5059768;28;20075;-77
2023/04/23 04:53:11;;;;;;;52.03;37.58;;;7.30;99.90;;;;;;5059195;28;20493;-77
2023/04/23 04:55:36;;;;;;;58.78;39.13;;;7.30;99.90;;;;;;5057499;28;20044;-77
2023/04/23 04:58:02;;;;;;;62.28;43.95;;;7.30;99.90;;;;;;5046521;28;20624;-78
2023/04/23 05:00:29;;;;;;;83.28;49.58;;;7.40;99.90;;;;;;5052613;28;20049;-77
2023/04/23 05:02:56;;;;;;;94.82;54.42;;;7.40;99.90;;;;;;5045245;28;20117;-78
2023/04/23 05:05:24;;;;;;;117.25;57.65;;;7.50;99.90;;;;;;5048012;28;20486;-78
2023/04/23 05:07:49;;;;;;;97.18;61.90;;;7.60;99.90;;;;;;5051275;28;20140;-78
2023/04/23 05:10:15;;;;;;;100.72;57.22;;;7.60;99.90;;;;;;5062089;28;20125;-77
2023/04/23 05:12:42;;;;;;;95.50;56.42;;;7.70;99.90;;;;;;5053155;28;20483;-78
2023/04/23 05:15:12;;;;;;;99.20;56.53;;;7.80;99.90;;;;;;5043082;28;20076;-77
2023/04/23 05:17:38;;;;;;;89.20;59.13;;;7.90;99.90;;;;;;5050940;28;20519;-78
2023/04/23 05:20:04;;;;;;;93.18;60.03;;;8.00;99.90;;;;;;5058816;28;20044;-77
2023/04/23 05:22:30;;;;;;;90.95;59.78;;;8.10;99.90;;;;;;5052868;28;20059;-77
2023/04/23 05:24:56;;;;;;;88.95;58.70;;;8.20;99.90;;;;;;5060983;28;20060;-77
2023/04/23 05:27:21;;;;;;;87.57;59.35;;;8.20;99.90;;;;;;5062168;28;20075;-76
2023/04/23 05:29:47;;;;;;;97.20;64.95;;;8.20;99.90;;;;;;5063407;28;20101;-77
2023/04/23 05:32:13;;;;;;;97.88;65.50;;;8.30;99.90;;;;;;5057080;28;20163;-77
2023/04/23 05:34:39;;;;;;;101.75;64.78;;;8.40;99.90;;;;;;5055737;28;20041;-77
2023/04/23 05:37:05;;;;;;;89.55;61.92;;;8.50;99.90;;;;;;5057948;28;20558;-77
2023/04/23 05:39:31;;;;;;;93.40;61.10;;;8.60;99.90;;;;;;5057581;28;20048;-77
2023/04/23 05:41:57;;;;;;;109.50;64.53;;;8.60;99.90;;;;;;5054786;28;20093;-77
2023/04/23 05:44:23;;;;;;;104.45;67.75;;;8.70;99.90;;;;;;5046844;28;20044;-77
2023/04/23 05:46:49;;;;;;;109.90;73.20;;;8.80;99.90;;;;;;5046750;28;20530;-78
2023/04/23 05:49:14;;;;;;;120.00;78.18;;;8.80;99.90;;;;;;5044204;28;20071;-77
2023/04/23 05:51:40;;;;;;;122.13;78.38;;;8.80;99.90;;;;;;5043573;28;20789;-77
2023/04/23 05:54:06;;;;;;;110.40;75.43;;;8.90;99.90;;;;;;5043094;28;20072;-77
2023/04/23 05:56:32;;;;;;;102.65;66.95;;;8.90;99.90;;;;;;5043752;28;20048;-77
2023/04/23 05:58:57;;;;;;;90.63;58.58;;;8.90;99.90;;;;;;5056057;28;20122;-77
2023/04/23 06:01:23;;;;;;;91.95;61.03;;;8.90;99.90;;;;;;5046398;28;20061;-77
2023/04/23 06:03:49;;;;;;;92.13;60.67;;;9.00;99.90;;;;;;5042315;28;20132;-77
2023/04/23 06:06:15;;;;;;;90.93;57.10;;;9.00;99.90;;;;;;5042940;28;20048;-77
2023/04/23 06:08:40;;;;;;;94.93;54.30;;;9.00;99.90;;;;;;5059603;28;20048;-77
2023/04/23 06:11:06;;;;;;;87.25;53.75;;;9.00;99.90;;;;;;5058625;28;20040;-77
2023/04/23 06:13:33;;;;;;;86.15;52.92;;;9.00;99.90;;;;;;5052670;28;20053;-77
2023/04/23 06:15:59;;;;;;;90.93;53.47;;;9.10;99.90;;;;;;5044050;28;20057;-77
2023/04/23 06:18:26;;;;;;;84.93;55.03;;;9.10;99.90;;;;;;5049620;28;20075;-77
2023/04/23 06:20:52;;;;;;;81.05;56.00;;;8.40;99.90;;;;;;5057903;28;20044;-77
2023/04/23 06:23:17;;;;;;;80.45;52.25;;;9.10;99.90;;;;;;5049537;28;20083;-77
2023/04/23 06:25:43;;;;;;;75.25;54.33;;;9.20;99.90;;;;;;5050258;28;20063;-77
2023/04/23 06:28:09;;;;;;;79.25;52.97;;;9.30;99.90;;;;;;5059183;28;20122;-78
2023/04/23 06:30:35;;;;;;;90.65;56.50;;;9.40;99.90;;;;;;5049633;28;20052;-79
2023/04/23 06:33:01;;;;;;;74.65;51.00;;;9.50;99.90;;;;;;5048376;28;20052;-78
2023/04/23 06:35:26;;;;;;;83.00;52.05;;;9.60;99.90;;;;;;5051826;28;20036;-77
2023/04/23 06:37:52;;;;;;;80.57;51.83;;;9.80;99.90;;;;;;5055862;28;20052;-77
2023/04/23 06:40:18;;;;;;;80.80;52.08;;;10.10;99.90;;;;;;5055942;28;20055;-77
2023/04/23 06:42:44;;;;;;;75.35;51.55;;;10.40;99.90;;;;;;5090866;28;20106;-77
2023/04/23 06:45:10;;;;;;;79.78;50.47;;;10.60;99.90;;;;;;5057829;28;20090;-78
2023/04/23 06:47:36;;;;;;;70.30;47.35;;;10.90;99.90;;;;;;5058260;28;20127;-78
2023/04/23 06:50:02;;;;;;;66.47;44.42;;;11.10;99.90;;;;;;5051011;28;20072;-78
2023/04/23 06:52:28;;;;;;;62.53;42.80;;;11.20;99.90;;;;;;5046259;28;20044;-78
2023/04/23 06:54:53;;;;;;;64.93;42.03;;;11.30;99.90;;;;;;5056709;28;20036;-78
2023/04/23 06:57:20;;;;;;;59.72;39.08;;;11.50;99.90;;;;;;5043956;28;20068;-78
2023/04/23 06:59:46;;;;;;;56.35;36.10;;;11.70;99.90;;;;;;5053537;28;20441;-78
2023/04/23 07:02:12;;;;;;;51.92;33.58;;;12.30;99.90;;;;;;5060850;28;20040;-78
2023/04/23 07:04:37;;;;;;;48.42;32.08;;;13.20;99.90;;;;;;5046705;28;20051;-78
2023/04/23 07:07:03;;;;;;;47.50;29.13;;;13.90;99.90;;;;;;5044685;28;20095;-78
2023/04/23 07:09:29;;;;;;;45.38;29.98;;;14.80;99.90;;;;;;5049061;28;20055;-78
2023/04/23 07:11:56;;;;;;;51.20;29.45;;;15.10;99.90;;;;;;5060073;28;20136;-78
2023/04/23 07:14:21;;;;;;;38.63;26.52;;;15.60;99.90;;;;;;5053415;28;20044;-79
2023/04/23 07:16:47;;;;;;;38.03;24.42;;;15.80;99.90;;;;;;5046317;28;20815;-75
2023/04/23 07:19:13;;;;;;;42.53;27.33;;;15.50;99.90;;;;;;5051813;28;20052;-77
2023/04/23 07:21:39;;;;;;;39.70;26.40;;;16.10;99.90;;;;;;5036905;28;20889;-78
2023/04/23 07:24:07;;;;;;;42.38;26.52;;;16.30;99.90;;;;;;5042635;28;20159;-78
2023/04/23 07:26:35;;;;;;;35.05;24.23;;;16.60;99.90;;;;;;5066860;28;20075;-78
2023/04/23 07:29:02;;;;;;;36.53;24.42;;;17.00;99.90;;;;;;5044313;28;20156;-77
2023/04/23 07:31:28;;;;;;;35.00;24.90;;;17.10;99.90;;;;;;5045221;28;20425;-77
2023/04/23 07:33:55;;;;;;;33.85;23.38;;;17.60;99.90;;;;;;5058209;28;20045;-78
2023/04/23 07:36:21;;;;;;;38.28;23.13;;;17.20;99.90;;;;;;5053210;28;20095;-78
2023/04/23 07:38:47;;;;;;;36.58;24.27;;;17.00;99.90;;;;;;5050116;28;20576;-77
2023/04/23 07:41:12;;;;;;;32.58;23.40;;;16.80;99.90;;;;;;5052086;28;20059;-78
2023/04/23 07:43:39;;;;;;;34.95;23.08;;;16.40;99.90;;;;;;5053551;28;20493;-77
2023/04/23 07:46:06;;;;;;;30.10;22.55;;;16.30;99.90;;;;;;5080787;28;20124;-77
2023/04/23 07:48:33;;;;;;;36.17;24.80;;;16.30;99.90;;;;;;5050074;28;20080;-78
2023/04/23 07:51:00;;;;;;;33.35;24.20;;;16.20;99.90;;;;;;5047784;28;20052;-78
2023/04/23 07:53:27;;;;;;;33.22;24.13;;;16.10;99.90;;;;;;5056759;28;20158;-78
2023/04/23 07:55:55;;;;;;;33.20;25.35;;;16.40;99.90;;;;;;5056014;28;20049;-77
2023/04/23 07:58:21;;;;;;;36.58;23.58;;;16.60;99.90;;;;;;5048739;28;20099;-77
2023/04/23 08:00:47;;;;;;;33.67;23.33;;;16.80;99.90;;;;;;5058263;28;20101;-76
2023/04/23 08:03:13;;;;;;;30.13;22.88;;;17.70;99.90;;;;;;5047650;28;20053;-77
2023/04/23 08:05:40;;;;;;;31.40;22.58;;;18.10;99.90;;;;;;5058892;28;20066;-77
2023/04/23 08:08:10;;;;;;;32.08;22.92;;;18.60;99.90;;;;;;5058580;28;20056;-77
2023/04/23 08:10:35;;;;;;;30.58;22.42;;;18.60;99.90;;;;;;5057326;28;20125;-77
2023/04/23 08:13:01;;;;;;;30.25;21.85;;;18.70;99.90;;;;;;5060484;28;20053;-77
2023/04/23 08:15:27;;;;;;;28.15;18.80;;;19.40;99.90;;;;;;5053874;28;20079;-77
2023/04/23 08:17:53;;;;;;;26.90;20.52;;;19.90;99.90;;;;;;5058038;28;20052;-76
2023/04/23 08:20:19;;;;;;;26.63;20.90;;;19.90;99.90;;;;;;5055172;28;20415;-76
2023/04/23 08:22:44;;;;;;;24.40;19.75;;;19.60;99.90;;;;;;5052941;28;20044;-77
2023/04/23 08:25:12;;;;;;;29.13;21.20;;;19.40;99.90;;;;;;5056476;28;20740;-77
2023/04/23 08:27:38;;;;;;;27.35;21.98;;;19.80;99.90;;;;;;5059721;28;20153;-76
2023/04/23 08:30:05;;;;;;;27.98;21.70;;;20.40;99.90;;;;;;5051412;28;20080;-78
2023/04/23 08:32:31;;;;;;;28.90;19.95;;;20.70;99.90;;;;;;5084389;28;20056;-77
2023/04/23 08:34:57;;;;;;;24.85;18.95;;;20.70;99.90;;;;;;5058657;28;20048;-79
2023/04/23 08:37:23;;;;;;;27.90;19.02;;;20.90;99.80;;;;;;5092306;28;20056;-78
2023/04/23 08:39:49;;;;;;;24.20;18.27;;;20.80;98.70;;;;;;5057217;28;20098;-78
2023/04/23 08:42:25;;;;;;;22.73;17.95;;;21.00;99.80;;;;;;5058803;28;20044;-77
2023/04/23 08:44:52;;;;;;;24.00;17.27;;;21.20;97.40;;;;;;5043488;28;20052;-78
2023/04/23 08:47:22;;;;;;;21.17;16.08;;;20.60;97.70;;;;;;5044856;28;20047;-78
2023/04/23 08:49:52;;;;;;;21.17;17.05;;;21.10;99.70;;;;;;5052487;28;20314;-78
2023/04/23 08:52:22;;;;;;;22.27;17.30;;;21.20;99.30;;;;;;5053850;28;20114;-78
2023/04/23 08:54:51;;;;;;;21.60;15.23;;;21.30;99.10;;;;;;5051810;28;20041;-78
2023/04/23 08:57:17;;;;;;;21.73;16.23;;;21.00;98.10;;;;;;5057041;28;20080;-78
2023/04/23 08:59:45;;;;;;;19.92;15.57;;;21.10;97.90;;;;;;5044060;28;20683;-78
2023/04/23 09:02:11;;;;;;;21.77;14.98;;;21.30;98.20;;;;;;5058703;28;20623;-78
2023/04/23 09:04:37;;;;;;;20.85;15.32;;;21.80;98.90;;;;;;5054008;28;20048;-78
2023/04/23 09:07:06;;;;;;;18.92;15.07;;;21.70;98.00;;;;;;5049662;28;20729;-78
2023/04/23 09:09:33;;;;;;;19.02;14.30;;;22.20;98.90;;;;;;5054246;28;20258;-78
2023/04/23 09:12:00;;;;;;;19.35;13.57;;;21.80;97.00;;;;;;5060308;28;20048;-78
2023/04/23 09:14:25;;;;;;;16.25;13.07;;;22.00;97.70;;;;;;5043837;28;20126;-77
2023/04/23 09:16:52;;;;;;;16.63;13.00;;;22.30;97.50;;;;;;5053264;28;20048;-78
2023/04/23 09:19:18;;;;;;;14.63;11.60;;;22.80;97.60;;;;;;5056517;28;20136;-78
2023/04/23 09:21:45;;;;;;;18.25;13.57;;;22.70;97.30;;;;;;5061562;28;20044;-79
2023/04/23 09:24:11;;;;;;;17.60;11.70;;;22.40;96.30;;;;;;5047956;28;20576;-79
2023/04/23 09:26:45;;;;;;;16.23;11.73;;;22.50;96.50;;;;;;5060213;28;20052;-79
2023/04/23 09:29:22;;;;;;;16.25;14.00;;;23.00;95.30;;;;;;5056662;28;20085;-78
2023/04/23 09:31:50;;;;;;;16.27;12.55;;;22.50;94.10;;;;;;5048071;28;20102;-79
2023/04/23 09:34:20;;;;;;;13.27;11.43;;;21.80;96.10;;;;;;5055835;28;20040;-78
2023/04/23 09:36:51;;;;;;;16.73;13.45;;;21.10;96.10;;;;;;5047820;28;20049;-78
2023/04/23 09:39:18;;;;;;;18.88;12.00;;;19.90;96.50;;;;;;5052444;28;20108;-78
2023/04/23 09:41:47;;;;;;;12.82;9.40;;;19.30;98.30;;;;;;5056590;28;20052;-79
2023/04/23 09:44:25;;;;;;;14.18;10.68;;;18.80;98.80;;;;;;5055027;28;20099;-78
2023/04/23 09:46:50;;;;;;;15.02;10.13;;;18.40;99.10;;;;;;5059589;28;20160;-79
2023/04/23 09:49:16;;;;;;;15.60;10.30;;;18.20;99.90;;;;;;5063032;28;20044;-78
2023/04/23 09:51:47;;;;;;;13.32;9.25;;;18.10;99.50;;;;;;5060829;28;20178;-77
2023/04/23 09:54:20;;;;;;;14.98;9.93;;;17.90;99.90;;;;;;5060725;28;20206;-78
2023/04/23 09:56:52;;;;;;;15.02;9.50;;;18.20;99.90;;;;;;5057352;28;20254;-77
2023/04/23 09:59:25;;;;;;;13.97;8.63;;;19.10;99.40;;;;;;5090152;28;20114;-77
2023/04/23 10:01:51;;;;;;;10.43;7.70;;;19.70;99.00;;;;;;5056687;28;20052;-78
2023/04/23 10:04:22;;;;;;;11.02;7.63;;;20.60;98.90;;;;;;5057934;28;20044;-78
2023/04/23 10:06:54;;;;;;;9.98;6.18;;;21.20;97.70;;;;;;5053513;28;20052;-78
2023/04/23 10:09:23;;;;;;;9.35;6.22;;;21.00;95.20;;;;;;5055382;28;20150;-78
2023/04/23 10:11:54;;;;;;;10.93;6.80;;;20.80;96.80;;;;;;5051114;28;20045;-79
2023/04/23 10:14:21;;;;;;;8.30;6.28;;;21.40;96.80;;;;;;5055570;28;20229;-78
2023/04/23 10:16:49;;;;;;;9.55;6.85;;;22.20;95.80;;;;;;5055697;28;20052;-75
2023/04/23 10:19:18;;;;;;;10.98;5.93;;;22.90;95.80;;;;;;5045415;28;20048;-78
2023/04/23 10:21:48;;;;;;;9.15;6.28;;;22.40;94.70;;;;;;5059864;28;20151;-78
2023/04/23 10:24:18;;;;;;;10.65;6.95;;;20.90;94.90;;;;;;5059814;28;20072;-77
2023/04/23 10:26:45;;;;;;;11.82;6.30;;;20.30;96.00;;;;;;5054494;28;20120;-78
2023/04/23 10:29:17;;;;;;;8.82;5.90;;;20.80;97.00;;;;;;5052948;28;20060;-78
2023/04/23 10:31:44;;;;;;;12.23;5.35;;;21.30;96.20;;;;;;5054919;28;20493;-78
2023/04/23 10:34:10;;;;;;;8.90;5.97;;;21.10;96.30;;;;;;5054401;28;20045;-78
2023/04/23 10:36:37;;;;;;;7.07;5.50;;;21.20;96.00;;;;;;5054431;28;20062;-79
2023/04/23 10:39:07;;;;;;;14.48;5.75;;;21.10;95.00;;;;;;5054042;28;20124;-79
2023/04/23 10:41:39;;;;;;;10.50;5.43;;;20.50;96.20;;;;;;5050005;28;20505;-79
2023/04/23 10:44:09;;;;;;;6.97;4.55;;;20.30;95.60;;;;;;5042611;28;20049;-78
2023/04/23 10:46:35;;;;;;;7.50;4.70;;;20.50;96.50;;;;;;5053898;28;20747;-78
2023/04/23 10:49:09;;;;;;;10.65;4.10;;;20.10;95.90;;;;;;5054925;28;20044;-79
2023/04/23 10:51:35;;;;;;;8.32;4.40;;;19.30;95.20;;;;;;5057389;28;20182;-78
2023/04/23 10:54:03;;;;;;;9.63;4.60;;;19.30;96.50;;;;;;5055134;28;20040;-78
2023/04/23 10:56:29;;;;;;;6.47;4.47;;;19.20;96.40;;;;;;5057323;28;20048;-78
2023/04/23 10:58:54;;;;;;;7.97;4.25;;;19.00;96.70;;;;;;5054073;28;20044;-79
2023/04/23 11:01:24;;;;;;;9.15;5.65;;;18.80;97.10;;;;;;5056862;28;20048;-78
2023/04/23 11:03:51;;;;;;;6.70;4.05;;;18.90;97.00;;;;;;5048419;28;20092;-78
2023/04/23 11:06:49;;;;;;;6.65;3.65;;;19.00;96.70;;;;;;5046173;28;20044;-79
2023/04/23 11:09:30;;;;;;;5.60;3.10;;;19.00;96.60;;;;;;5055831;28;20123;-79
2023/04/23 11:12:01;;;;;;;6.50;3.80;;;19.10;96.70;;;;;;5061036;28;20407;-77
2023/04/23 11:14:33;;;;;;;6.85;4.45;;;19.20;96.80;;;;;;5059701;28;20052;-79
2023/04/23 11:16:59;;;;;;;7.43;3.75;;;19.10;96.60;;;;;;5052996;28;20341;-79
2023/04/23 11:19:24;;;;;;;7.47;4.20;;;19.10;96.60;;;;;;5055661;28;20561;-79
2023/04/23 11:22:06;;;;;;;5.80;3.80;;;19.20;96.70;;;;;;5054472;28;20052;-79
2023/04/23 11:24:41;;;;;;;5.05;3.10;;;19.10;96.50;;;;;;5050302;28;20168;-80
2023/04/23 11:27:08;;;;;;;4.97;3.85;;;19.20;95.70;;;;;;5047804;28;20072;-79
2023/04/23 11:29:36;;;;;;;5.18;3.10;;;19.40;96.20;;;;;;5046527;28;20662;-80
2023/04/23 11:32:02;;;;;;;4.32;2.50;;;19.20;94.20;;;;;;5055360;28;20052;-78
2023/04/23 11:34:28;;;;;;;5.57;2.70;;;19.30;95.10;;;;;;5055286;28;20113;-80
2023/04/23 11:36:57;;;;;;;6.15;2.53;;;19.30;95.20;;;;;;5038424;28;20524;-79
2023/04/23 11:39:23;;;;;;;6.47;2.70;;;19.10;93.90;;;;;;5051350;28;20056;-79
2023/04/23 11:41:51;;;;;;;6.15;2.85;;;19.20;95.10;;;;;;5041898;28;20106;-78
2023/04/23 11:44:18;;;;;;;4.45;2.80;;;19.10;94.80;;;;;;5044916;28;20504;-79
2023/04/23 11:46:47;;;;;;;4.38;2.97;;;19.10;94.10;;;;;;5051606;28;20444;-79
2023/04/23 11:49:13;;;;;;;6.70;3.05;;;19.30;94.80;;;;;;5047985;28;20041;-79
2023/04/23 11:51:43;;;;;;;5.15;2.42;;;19.50;94.50;;;;;;5050379;28;20055;-80
2023/04/23 11:54:10;;;;;;;7.43;2.88;;;19.40;93.00;;;;;;5054692;28;20099;-79
2023/04/23 11:56:36;;;;;;;5.05;2.40;;;19.30;94.00;;;;;;5053618;28;20152;-80
2023/04/23 11:59:04;;;;;;;5.53;2.20;;;19.20;94.00;;;;;;5051071;28;20071;-79
2023/04/23 12:01:50;;;;;;;4.93;2.25;;;19.40;94.50;;;;;;5054021;28;20055;-78
2023/04/23 12:04:21;;;;;;;4.32;2.17;;;19.70;94.00;;;;;;5053924;28;20048;-79
2023/04/23 12:06:48;;;;;;;5.30;2.45;;;19.90;93.90;;;;;;5055504;28;20087;-79
2023/04/23 12:09:16;;;;;;;5.03;2.95;;;20.00;93.80;;;;;;5046810;28;20049;-79
2023/04/23 12:11:43;;;;;;;5.50;2.30;;;20.00;93.30;;;;;;5052875;28;20052;-79
2023/04/23 12:14:10;;;;;;;5.10;2.58;;;20.30;93.40;;;;;;5055280;28;20084;-78
2023/04/23 12:16:38;;;;;;;3.78;2.33;;;20.40;92.30;;;;;;5050510;28;20049;-79
2023/04/23 12:19:07;;;;;;;2.90;2.45;;;20.20;92.60;;;;;;5061498;28;20044;-78
2023/04/23 12:21:33;;;;;;;4.43;1.90;;;20.00;92.10;;;;;;5064220;28;20512;-80
2023/04/23 12:24:02;;;;;;;2.10;1.90;;;20.10;92.80;;;;;;5055979;28;20041;-79
2023/04/23 12:26:28;;;;;;;3.60;1.73;;;20.20;92.60;;;;;;5046701;28;20059;-77
2023/04/23 12:28:59;;;;;;;4.07;1.98;;;20.10;92.40;;;;;;5047200;28;20048;-79
2023/04/23 12:31:28;;;;;;;4.05;1.77;;;20.20;92.40;;;;;;5049727;28;20806;-79
2023/04/23 12:34:08;;;;;;;3.75;2.53;;;20.30;91.40;;;;;;5056149;28;20041;-79
2023/04/23 12:36:35;;;;;;;3.47;2.20;;;20.30;90.80;;;;;;5052899;28;20499;-80